Time;durP1;ratioP1;P1;durP2;ratioP2;P2;SDS_P1;SDS_P2;PMS_P1;PMS_P2;Temp;Humidity;BMP_temperature;BMP_pressure;BME280_temperature;BME280_humidity;BME280_pressure;Samples;Min_cycle;Max_cycle;Signal;HPM_P1;HPM_P2
2021/08/23 00:00:32;;;;;;;2.57;1.50;;;14.40;99.90;;;;;;5125559;28;20228;-63
2021/08/23 00:03:05;;;;;;;4.80;1.90;;;14.40;99.90;;;;;;5157237;28;20218;-66
2021/08/23 00:05:37;;;;;;;3.63;1.60;;;14.40;99.90;;;;;;5159346;28;20199;-66
2021/08/23 00:08:09;;;;;;;3.40;2.00;;;14.40;99.90;;;;;;5155892;28;20219;-63
2021/08/23 00:10:41;;;;;;;4.47;1.50;;;14.40;99.90;;;;;;5158787;28;20509;-66
2021/08/23 00:13:16;;;;;;;4.13;1.70;;;14.40;99.90;;;;;;5153164;28;20560;-65
2021/08/23 00:15:53;;;;;;;2.70;1.70;;;14.50;99.90;;;;;;5153035;28;20223;-63
2021/08/23 00:18:25;;;;;;;3.87;1.67;;;14.40;99.90;;;;;;5153970;28;20306;-64
2021/08/23 00:21:10;;;;;;;6.10;1.40;;;14.40;99.90;;;;;;5157103;28;20532;-64
2021/08/23 00:23:50;;;;;;;3.50;1.50;;;14.40;99.90;;;;;;5152204;28;20227;-64
2021/08/23 00:26:25;;;;;;;3.60;1.30;;;14.40;99.90;;;;;;5160123;28;20211;-64
2021/08/23 00:28:57;;;;;;;4.93;1.70;;;14.40;99.90;;;;;;5157599;28;20232;-63
2021/08/23 00:31:29;;;;;;;4.20;1.43;;;14.40;99.90;;;;;;5159942;28;20633;-67
2021/08/23 00:34:04;;;;;;;3.40;1.40;;;14.50;99.90;;;;;;5158059;28;20234;-66
2021/08/23 00:36:36;;;;;;;2.37;1.37;;;14.50;99.90;;;;;;5158044;28;20219;-67
2021/08/23 00:39:12;;;;;;;1.93;1.10;;;14.50;99.90;;;;;;5156752;28;20231;-64
2021/08/23 00:41:44;;;;;;;2.23;1.30;;;14.50;99.90;;;;;;5153211;28;20503;-62
2021/08/23 00:44:19;;;;;;;3.93;1.23;;;14.50;99.90;;;;;;5161453;28;20203;-64
2021/08/23 00:46:51;;;;;;;2.33;1.20;;;14.60;99.90;;;;;;5163792;28;20210;-62
2021/08/23 00:49:22;;;;;;;6.53;1.20;;;14.60;99.90;;;;;;5161097;28;20235;-64
2021/08/23 00:51:58;;;;;;;6.60;1.30;;;14.60;99.90;;;;;;5160547;28;20215;-65
2021/08/23 00:54:31;;;;;;;1.50;1.10;;;14.60;99.90;;;;;;5159402;28;20548;-65
2021/08/23 00:57:06;;;;;;;2.97;1.23;;;14.70;99.90;;;;;;5160990;28;20203;-63
2021/08/23 00:59:41;;;;;;;1.30;0.90;;;14.60;99.90;;;;;;5160120;28;20227;-64
2021/08/23 01:02:30;;;;;;;2.53;1.30;;;14.60;99.90;;;;;;5180871;28;20623;-69
2021/08/23 01:05:14;;;;;;;4.23;0.97;;;14.60;99.90;;;;;;5180623;28;20219;-64
2021/08/23 01:08:36;;;;;;;2.70;1.10;;;14.60;99.90;;;;;;5179165;28;20199;-61
2021/08/23 01:11:12;;;;;;;2.47;1.10;;;14.70;99.90;;;;;;5160231;28;20191;-63
2021/08/23 01:13:46;;;;;;;2.60;0.77;;;14.70;99.90;;;;;;5179070;28;20620;-69
2021/08/23 01:16:19;;;;;;;1.73;1.00;;;14.70;99.90;;;;;;5182655;28;20231;-68
2021/08/23 01:18:51;;;;;;;1.73;0.90;;;14.70;99.90;;;;;;5180132;28;20256;-69
2021/08/23 01:21:27;;;;;;;1.20;0.90;;;14.70;99.90;;;;;;5160798;28;20195;-64
2021/08/23 01:24:02;;;;;;;2.40;1.20;;;14.70;99.90;;;;;;5180226;28;20268;-66
2021/08/23 01:26:45;;;;;;;2.50;1.10;;;14.70;99.90;;;;;;5182949;28;20227;-64
2021/08/23 01:29:39;;;;;;;1.53;1.00;;;14.70;99.90;;;;;;5181460;28;20214;-63
2021/08/23 01:32:17;;;;;;;1.87;1.10;;;14.80;99.90;;;;;;5182082;28;20222;-68
2021/08/23 01:34:53;;;;;;;1.73;1.00;;;14.80;99.90;;;;;;5167351;28;20190;-62
2021/08/23 01:37:25;;;;;;;1.93;1.07;;;14.80;99.90;;;;;;5159296;28;20571;-63
2021/08/23 01:40:00;;;;;;;1.43;0.80;;;14.80;99.90;;;;;;5165076;28;20198;-66
2021/08/23 01:42:32;;;;;;;1.43;0.80;;;14.80;99.90;;;;;;5179879;28;20206;-68
2021/08/23 01:45:05;;;;;;;2.17;1.20;;;14.80;99.90;;;;;;5182698;28;20199;-67
2021/08/23 01:47:40;;;;;;;1.93;1.07;;;14.80;99.90;;;;;;5160521;28;20498;-66
2021/08/23 01:50:12;;;;;;;1.70;1.00;;;14.80;99.90;;;;;;5179519;28;20234;-66
2021/08/23 01:52:46;;;;;;;2.23;1.00;;;14.80;99.90;;;;;;5178112;28;20203;-65
2021/08/23 01:55:19;;;;;;;1.40;0.83;;;14.90;99.90;;;;;;5180820;28;20202;-63
2021/08/23 01:57:54;;;;;;;1.37;0.67;;;14.90;99.90;;;;;;5166336;28;20198;-64
2021/08/23 02:00:27;;;;;;;2.00;1.10;;;14.90;99.90;;;;;;5148150;28;20254;-62
2021/08/23 02:02:59;;;;;;;2.37;0.90;;;14.90;99.90;;;;;;5182401;28;20615;-64
2021/08/23 02:05:31;;;;;;;2.03;1.13;;;14.90;99.90;;;;;;5168115;28;20229;-65
2021/08/23 02:08:03;;;;;;;2.20;1.23;;;14.90;99.90;;;;;;5173533;28;20207;-63
2021/08/23 02:10:35;;;;;;;1.33;0.70;;;14.90;99.90;;;;;;5173745;28;20217;-65
2021/08/23 02:13:08;;;;;;;1.30;0.77;;;14.90;99.90;;;;;;5173728;28;20215;-69
2021/08/23 02:15:40;;;;;;;2.13;0.97;;;15.00;99.90;;;;;;5173097;28;20258;-65
2021/08/23 02:18:12;;;;;;;3.50;1.00;;;15.10;99.90;;;;;;5190695;28;20231;-67
2021/08/23 02:20:45;;;;;;;5.00;1.00;;;15.10;99.90;;;;;;5173360;28;20206;-64
2021/08/23 02:23:16;;;;;;;3.13;0.80;;;15.20;99.90;;;;;;5190072;28;20646;-66
2021/08/23 02:25:49;;;;;;;1.83;0.80;;;15.20;99.90;;;;;;5190628;28;20211;-68
2021/08/23 02:28:21;;;;;;;2.27;1.00;;;15.20;99.90;;;;;;5172730;28;20226;-68
2021/08/23 02:30:53;;;;;;;2.27;0.97;;;15.30;99.90;;;;;;5190203;28;20206;-66
2021/08/23 02:33:25;;;;;;;1.37;0.70;;;15.30;99.90;;;;;;5189599;28;20235;-63
2021/08/23 02:35:58;;;;;;;1.80;0.87;;;15.30;99.90;;;;;;5172698;28;20219;-64
2021/08/23 02:38:30;;;;;;;2.53;1.00;;;15.20;99.90;;;;;;5172612;28;20231;-62
2021/08/23 02:41:01;;;;;;;2.90;0.90;;;15.20;99.90;;;;;;5189902;28;20210;-65
2021/08/23 02:43:35;;;;;;;2.50;0.90;;;15.20;99.90;;;;;;5189756;28;20230;-62
2021/08/23 02:46:07;;;;;;;1.27;0.80;;;15.10;99.90;;;;;;5172839;28;20219;-63
2021/08/23 02:48:39;;;;;;;2.67;1.07;;;15.10;99.90;;;;;;5189190;28;20207;-64
2021/08/23 02:51:12;;;;;;;1.43;1.00;;;15.10;99.90;;;;;;5189633;28;20206;-66
2021/08/23 02:53:44;;;;;;;1.77;0.60;;;15.10;99.90;;;;;;5189678;28;20235;-64
2021/08/23 02:56:16;;;;;;;2.67;0.90;;;15.00;99.90;;;;;;5172335;28;20227;-63
2021/08/23 02:58:48;;;;;;;3.03;0.90;;;14.90;99.90;;;;;;5189328;28;20242;-63
2021/08/23 03:01:20;;;;;;;1.40;0.80;;;14.90;99.90;;;;;;5188919;28;20353;-64
2021/08/23 03:03:52;;;;;;;1.40;0.80;;;14.90;99.90;;;;;;5156185;28;20237;-66
2021/08/23 03:06:24;;;;;;;2.27;0.80;;;14.80;99.90;;;;;;5171961;28;20207;-64
2021/08/23 03:09:01;;;;;;;1.77;0.73;;;14.80;99.90;;;;;;5188642;28;20250;-65
2021/08/23 03:11:33;;;;;;;2.20;0.90;;;14.80;99.90;;;;;;5189506;28;20588;-63
2021/08/23 03:14:05;;;;;;;2.07;0.93;;;14.80;99.90;;;;;;5188937;28;20234;-63
2021/08/23 03:16:37;;;;;;;1.30;0.73;;;14.80;99.90;;;;;;5171846;28;20223;-64
2021/08/23 03:19:09;;;;;;;1.73;0.83;;;14.80;99.90;;;;;;5155756;28;20230;-64
2021/08/23 03:21:43;;;;;;;2.37;1.00;;;14.80;99.90;;;;;;5155616;28;20203;-66
2021/08/23 03:24:15;;;;;;;1.00;0.70;;;14.80;99.90;;;;;;5171798;28;20674;-66
2021/08/23 03:26:47;;;;;;;3.20;1.00;;;14.70;99.90;;;;;;5171556;28;20210;-62
2021/08/23 03:29:19;;;;;;;2.83;1.00;;;14.70;99.90;;;;;;5188927;28;20230;-66
2021/08/23 03:31:53;;;;;;;4.07;1.10;;;14.70;99.90;;;;;;5189114;28;20238;-66
2021/08/23 03:34:25;;;;;;;1.30;0.87;;;14.60;99.90;;;;;;5171625;28;20240;-65
2021/08/23 03:36:58;;;;;;;1.50;1.00;;;14.60;99.90;;;;;;5171525;28;20284;-65
2021/08/23 03:39:29;;;;;;;1.93;0.93;;;14.60;99.90;;;;;;5171714;28;20226;-62
2021/08/23 03:42:02;;;;;;;1.97;1.03;;;14.60;99.90;;;;;;5171272;28;20199;-65
2021/08/23 03:44:34;;;;;;;1.40;0.90;;;14.60;99.90;;;;;;5188417;28;20237;-64
2021/08/23 03:47:06;;;;;;;1.50;1.10;;;14.50;99.90;;;;;;5171760;28;20663;-62
2021/08/23 03:49:38;;;;;;;2.53;1.20;;;14.50;99.90;;;;;;5155385;28;20535;-63
2021/08/23 03:52:10;;;;;;;2.57;1.10;;;14.50;99.90;;;;;;5188595;28;20508;-66
2021/08/23 03:54:42;;;;;;;2.73;1.00;;;14.50;99.90;;;;;;5171146;28;20230;-66
2021/08/23 03:57:14;;;;;;;2.57;1.00;;;14.50;99.90;;;;;;5171629;28;20253;-62
2021/08/23 03:59:47;;;;;;;1.40;0.73;;;14.50;99.90;;;;;;5170860;28;20539;-64
2021/08/23 04:02:19;;;;;;;1.80;1.10;;;14.50;99.90;;;;;;5170926;28;20231;-68
2021/08/23 04:04:52;;;;;;;1.53;0.90;;;14.50;99.90;;;;;;5188136;28;20250;-63
2021/08/23 04:07:24;;;;;;;2.70;1.30;;;14.50;99.90;;;;;;5165139;28;20547;-63
2021/08/23 04:09:56;;;;;;;2.07;1.03;;;14.50;99.90;;;;;;5174707;28;20246;-64
2021/08/23 04:12:28;;;;;;;2.37;1.00;;;14.50;99.90;;;;;;5185580;28;20203;-65
2021/08/23 04:15:00;;;;;;;2.90;0.93;;;14.60;99.90;;;;;;5188438;28;20241;-66
2021/08/23 04:17:35;;;;;;;2.20;1.20;;;14.60;99.90;;;;;;5170633;28;20245;-66
2021/08/23 04:20:07;;;;;;;4.17;1.30;;;14.60;99.90;;;;;;5169539;28;20230;-67
2021/08/23 04:22:39;;;;;;;2.57;1.13;;;14.60;99.90;;;;;;5170710;28;20210;-64
2021/08/23 04:25:12;;;;;;;2.10;1.20;;;14.80;99.90;;;;;;5187765;28;20231;-64
2021/08/23 04:27:46;;;;;;;2.43;1.40;;;14.80;99.90;;;;;;5171039;28;20217;-68
2021/08/23 04:30:18;;;;;;;3.87;1.10;;;14.80;99.90;;;;;;5171142;28;20609;-61
2021/08/23 04:32:52;;;;;;;2.23;1.03;;;14.80;99.90;;;;;;5188521;28;20198;-64
2021/08/23 04:35:24;;;;;;;3.40;1.07;;;14.90;99.90;;;;;;5188539;28;20319;-64
2021/08/23 04:37:59;;;;;;;4.13;1.13;;;14.90;99.90;;;;;;5188938;28;20258;-64
2021/08/23 04:40:31;;;;;;;2.20;1.40;;;15.00;99.90;;;;;;5188658;28;20521;-68
2021/08/23 04:43:03;;;;;;;2.33;1.20;;;15.10;99.90;;;;;;5188459;28;20231;-65
2021/08/23 04:45:35;;;;;;;2.33;1.00;;;15.10;99.90;;;;;;5170809;28;20233;-61
2021/08/23 04:48:07;;;;;;;1.37;0.87;;;15.10;99.90;;;;;;5187997;28;20672;-64
2021/08/23 04:50:39;;;;;;;1.87;1.03;;;15.20;99.90;;;;;;5187667;28;20618;-65
2021/08/23 04:53:14;;;;;;;1.30;0.80;;;15.30;99.90;;;;;;5170453;28;20245;-64
2021/08/23 04:55:46;;;;;;;2.03;1.00;;;15.30;99.90;;;;;;5170733;28;20581;-61
2021/08/23 04:58:21;;;;;;;2.37;1.13;;;15.40;99.90;;;;;;5187944;28;20541;-62
2021/08/23 05:00:53;;;;;;;3.17;1.23;;;15.50;99.90;;;;;;5170930;28;20238;-64
2021/08/23 05:03:25;;;;;;;3.07;0.90;;;15.60;99.90;;;;;;5170764;28;20207;-64
2021/08/23 05:05:57;;;;;;;4.57;1.33;;;15.70;99.90;;;;;;5187801;28;20234;-65
2021/08/23 05:08:29;;;;;;;2.10;1.10;;;15.80;99.90;;;;;;5187923;28;20199;-66
2021/08/23 05:11:01;;;;;;;2.57;1.00;;;15.90;99.90;;;;;;5187629;28;20227;-64
2021/08/23 05:13:34;;;;;;;5.77;1.17;;;16.00;99.90;;;;;;5171034;28;20183;-63
2021/08/23 05:16:06;;;;;;;2.23;1.07;;;16.10;99.90;;;;;;5170828;28;20214;-67
2021/08/23 05:18:43;;;;;;;2.13;0.90;;;16.10;99.90;;;;;;5170091;28;20210;-65
2021/08/23 05:21:14;;;;;;;2.87;1.27;;;16.20;99.90;;;;;;5177278;28;20246;-64
2021/08/23 05:23:46;;;;;;;1.93;1.10;;;16.30;99.90;;;;;;5167062;28;20199;-66
2021/08/23 05:26:19;;;;;;;1.97;0.93;;;16.40;99.90;;;;;;5149880;28;20231;-64
2021/08/23 05:28:50;;;;;;;3.10;1.10;;;16.50;99.90;;;;;;5166350;28;20188;-60
2021/08/23 05:31:23;;;;;;;2.30;1.07;;;16.50;99.90;;;;;;5149539;28;20231;-64
2021/08/23 05:33:57;;;;;;;4.37;1.20;;;16.60;99.90;;;;;;5152624;28;20278;-62
2021/08/23 05:36:29;;;;;;;2.20;1.30;;;16.70;99.90;;;;;;5169416;28;20226;-63
2021/08/23 05:39:01;;;;;;;2.40;1.20;;;16.80;99.90;;;;;;5152808;28;20203;-62
2021/08/23 05:41:33;;;;;;;2.33;1.20;;;16.90;99.90;;;;;;5137154;28;20301;-65
2021/08/23 05:44:05;;;;;;;3.80;1.20;;;16.90;99.90;;;;;;5153075;28;20218;-62
2021/08/23 05:46:37;;;;;;;3.00;1.20;;;16.90;99.90;;;;;;5170529;28;20647;-65
2021/08/23 05:49:09;;;;;;;3.83;1.00;;;17.00;99.90;;;;;;5153497;28;20192;-62
2021/08/23 05:51:43;;;;;;;1.70;0.93;;;17.00;99.90;;;;;;5153181;28;20220;-65
2021/08/23 05:54:15;;;;;;;1.77;0.90;;;17.00;99.90;;;;;;5153598;28;20200;-62
2021/08/23 05:56:47;;;;;;;3.87;1.30;;;17.00;99.90;;;;;;5153198;28;20242;-64
2021/08/23 05:59:21;;;;;;;1.92;1.00;;;17.00;99.90;;;;;;5153975;28;20218;-67
2021/08/23 06:01:55;;;;;;;3.50;1.00;;;17.10;99.90;;;;;;5170111;28;20234;-63
2021/08/23 06:04:29;;;;;;;3.50;1.00;;;17.10;99.90;;;;;;5171018;28;20211;-67
2021/08/23 06:07:01;;;;;;;2.37;1.20;;;17.10;99.90;;;;;;5154079;28;20615;-66
2021/08/23 06:09:34;;;;;;;3.83;1.20;;;17.10;99.90;;;;;;5153427;28;20211;-65
2021/08/23 06:12:07;;;;;;;1.65;1.05;;;17.00;99.90;;;;;;5170383;28;20295;-68
2021/08/23 06:14:40;;;;;;;2.93;1.20;;;17.00;99.90;;;;;;5153180;28;20226;-65
2021/08/23 06:17:12;;;;;;;1.60;0.90;;;17.10;99.90;;;;;;5170523;28;20258;-63
2021/08/23 06:19:49;;;;;;;4.33;1.50;;;17.10;99.90;;;;;;5170554;28;20208;-63
2021/08/23 06:22:21;;;;;;;2.17;1.17;;;17.20;99.90;;;;;;5169975;28;20211;-61
2021/08/23 06:24:53;;;;;;;3.33;1.20;;;17.30;99.90;;;;;;5170069;28;20203;-68
2021/08/23 06:27:28;;;;;;;2.28;1.10;;;17.40;99.90;;;;;;5169973;28;20490;-62
2021/08/23 06:30:06;;;;;;;3.30;1.20;;;17.60;99.90;;;;;;5137627;28;20229;-63
2021/08/23 06:32:38;;;;;;;2.45;1.33;;;18.20;99.90;;;;;;5169762;28;20218;-65
2021/08/23 06:35:10;;;;;;;2.50;1.38;;;18.60;99.90;;;;;;5152799;28;20523;-67
2021/08/23 06:37:43;;;;;;;2.22;1.10;;;18.70;99.90;;;;;;5169717;28;20247;-63
2021/08/23 06:40:15;;;;;;;4.07;1.20;;;18.80;99.90;;;;;;5153334;28;20538;-64
2021/08/23 06:42:47;;;;;;;3.53;1.10;;;19.20;99.90;;;;;;5152102;28;20199;-68
2021/08/23 06:45:19;;;;;;;2.83;1.20;;;19.70;99.90;;;;;;5169647;28;20199;-61
2021/08/23 06:47:51;;;;;;;3.50;1.20;;;19.90;99.90;;;;;;5169651;28;20207;-63
2021/08/23 06:50:23;;;;;;;2.78;1.30;;;19.80;99.90;;;;;;5153035;28;20266;-65
2021/08/23 06:52:57;;;;;;;3.88;1.27;;;19.50;99.90;;;;;;5169935;28;20207;-64
2021/08/23 06:55:30;;;;;;;2.05;1.02;;;19.10;99.90;;;;;;5169984;28;20222;-62
2021/08/23 06:58:02;;;;;;;2.47;1.13;;;19.00;99.90;;;;;;5169832;28;20235;-66
2021/08/23 07:00:37;;;;;;;3.38;1.42;;;18.90;99.90;;;;;;5169650;28;20235;-67
2021/08/23 07:03:09;;;;;;;3.72;1.40;;;18.40;99.90;;;;;;5137054;28;20207;-62
2021/08/23 07:05:44;;;;;;;3.15;1.17;;;18.40;99.90;;;;;;5155774;28;20219;-66
2021/08/23 07:08:18;;;;;;;1.92;1.20;;;18.50;99.90;;;;;;5171943;28;20207;-67
2021/08/23 07:10:51;;;;;;;3.03;1.35;;;18.70;99.90;;;;;;5186555;28;20214;-60
2021/08/23 07:13:23;;;;;;;3.20;1.30;;;19.60;99.90;;;;;;5173168;28;20643;-64
2021/08/23 07:15:57;;;;;;;2.13;1.08;;;21.20;99.90;;;;;;5179042;28;20213;-65
2021/08/23 07:18:31;;;;;;;2.75;1.40;;;22.20;99.90;;;;;;5189388;28;20233;-66
2021/08/23 07:21:05;;;;;;;3.25;1.17;;;22.80;99.90;;;;;;5159207;28;20572;-68
2021/08/23 07:23:37;;;;;;;3.13;1.10;;;23.90;99.90;;;;;;5168806;28;20569;-64
2021/08/23 07:26:11;;;;;;;2.15;1.02;;;24.90;99.90;;;;;;5168565;28;20532;-65
2021/08/23 07:28:43;;;;;;;2.15;1.23;;;25.00;99.90;;;;;;5168478;28;20211;-67
2021/08/23 07:31:15;;;;;;;2.83;1.30;;;25.10;99.90;;;;;;5151682;28;20572;-65
2021/08/23 07:33:54;;;;;;;2.25;1.15;;;25.20;99.90;;;;;;5151948;28;20238;-64
2021/08/23 07:36:28;;;;;;;2.22;1.10;;;25.00;99.90;;;;;;5136001;28;20217;-63
2021/08/23 07:39:03;;;;;;;2.05;1.02;;;24.80;99.90;;;;;;5168494;28;20245;-68
2021/08/23 07:41:35;;;;;;;2.33;1.60;;;25.00;99.90;;;;;;5151459;28;20580;-66
2021/08/23 07:44:09;;;;;;;2.63;1.42;;;24.40;99.90;;;;;;5179001;28;20273;-66
2021/08/23 07:46:41;;;;;;;1.77;1.10;;;23.70;99.90;;;;;;5188371;28;20202;-67
2021/08/23 07:49:13;;;;;;;2.08;1.20;;;22.50;99.90;;;;;;5171085;28;20213;-65
2021/08/23 07:51:46;;;;;;;1.98;1.10;;;21.90;99.90;;;;;;5188049;28;20203;-63
2021/08/23 07:54:18;;;;;;;2.97;1.10;;;21.60;99.90;;;;;;5171035;28;20211;-66
2021/08/23 07:56:50;;;;;;;2.67;1.10;;;21.70;99.90;;;;;;5155231;28;20265;-64
2021/08/23 07:59:27;;;;;;;2.33;1.15;;;21.30;99.90;;;;;;5188212;28;20203;-61
2021/08/23 08:01:59;;;;;;;2.70;1.30;;;21.00;99.90;;;;;;5171344;28;20242;-64
2021/08/23 08:04:31;;;;;;;2.72;1.25;;;20.60;99.90;;;;;;5171142;28;20264;-68
2021/08/23 08:07:03;;;;;;;2.80;1.00;;;20.10;99.90;;;;;;5171471;28;20637;-64
2021/08/23 08:09:35;;;;;;;1.98;1.10;;;20.10;99.90;;;;;;5170372;28;20638;-66
2021/08/23 08:12:07;;;;;;;1.95;1.02;;;19.80;99.90;;;;;;5170669;28;20241;-63
2021/08/23 08:14:39;;;;;;;4.22;0.98;;;20.00;99.90;;;;;;5171175;28;20214;-63
2021/08/23 08:17:11;;;;;;;4.57;1.40;;;20.20;99.90;;;;;;5170782;28;20242;-67
2021/08/23 08:19:46;;;;;;;2.40;1.15;;;20.40;99.90;;;;;;5155030;28;20211;-63
2021/08/23 08:22:19;;;;;;;1.90;1.17;;;20.20;99.90;;;;;;5171608;28;20241;-66
2021/08/23 08:24:51;;;;;;;2.88;1.10;;;19.80;99.90;;;;;;5188252;28;20218;-68
2021/08/23 08:27:23;;;;;;;3.33;1.35;;;19.40;99.90;;;;;;5187745;28;20238;-66
2021/08/23 08:29:55;;;;;;;2.05;1.15;;;19.20;99.90;;;;;;5188519;28;20217;-64
2021/08/23 08:32:27;;;;;;;2.40;1.13;;;19.20;99.90;;;;;;5171265;28;20234;-69
2021/08/23 08:34:59;;;;;;;3.80;1.17;;;19.20;99.90;;;;;;5166691;28;20540;-64
2021/08/23 08:37:31;;;;;;;1.75;0.95;;;19.20;99.90;;;;;;5167650;28;20532;-65
2021/08/23 08:40:04;;;;;;;2.33;1.20;;;19.20;99.90;;;;;;5187999;28;20211;-66
2021/08/23 08:42:36;;;;;;;3.13;1.45;;;19.20;99.90;;;;;;5187900;28;20552;-66
2021/08/23 08:45:09;;;;;;;5.05;1.50;;;19.10;99.90;;;;;;5169133;28;20206;-63
2021/08/23 08:47:43;;;;;;;2.47;1.30;;;18.50;99.90;;;;;;5167463;28;20243;-64
2021/08/23 08:50:17;;;;;;;4.75;1.70;;;18.20;99.90;;;;;;5170566;28;20199;-62
2021/08/23 08:52:49;;;;;;;1.92;1.30;;;18.10;99.90;;;;;;5167138;28;20253;-62
2021/08/23 08:55:22;;;;;;;2.58;1.30;;;18.00;99.90;;;;;;5187528;28;20207;-53
2021/08/23 08:57:53;;;;;;;2.10;1.40;;;18.00;99.90;;;;;;5161502;28;20223;-58
2021/08/23 09:00:26;;;;;;;3.55;1.05;;;18.10;99.90;;;;;;5185201;28;20612;-63
2021/08/23 09:03:00;;;;;;;5.00;1.30;;;18.00;99.90;;;;;;5191084;28;20646;-65
2021/08/23 09:05:42;;;;;;;2.13;1.20;;;18.00;99.90;;;;;;5182456;28;20203;-62
2021/08/23 09:08:13;;;;;;;2.88;1.35;;;18.20;99.90;;;;;;5174335;28;20253;-61
2021/08/23 09:10:45;;;;;;;3.15;1.55;;;18.60;99.90;;;;;;5174481;28;20217;-60
2021/08/23 09:13:17;;;;;;;3.03;1.20;;;18.80;99.90;;;;;;5190048;28;20242;-60
2021/08/23 09:15:57;;;;;;;2.42;1.20;;;18.90;99.90;;;;;;5173655;28;20257;-62
2021/08/23 09:18:32;;;;;;;2.60;1.35;;;19.10;99.90;;;;;;5171000;28;20601;-58
2021/08/23 09:21:10;;;;;;;3.35;1.38;;;19.30;99.90;;;;;;5154669;28;20235;-62
2021/08/23 09:23:47;;;;;;;3.15;1.42;;;19.30;99.90;;;;;;5171077;28;20235;-67
2021/08/23 09:26:19;;;;;;;2.78;1.42;;;19.50;99.90;;;;;;5171101;28;20222;-66
2021/08/23 09:28:57;;;;;;;4.22;1.27;;;19.50;99.90;;;;;;5137955;28;20254;-64
2021/08/23 09:31:38;;;;;;;3.30;1.40;;;19.40;99.90;;;;;;5153476;28;20214;-61
2021/08/23 09:34:15;;;;;;;2.45;1.58;;;19.20;99.90;;;;;;5153688;28;20230;-69
2021/08/23 09:36:56;;;;;;;2.72;1.48;;;18.80;99.90;;;;;;5170862;28;20213;-62
2021/08/23 09:39:29;;;;;;;5.93;1.40;;;18.60;99.90;;;;;;5153710;28;20266;-66
2021/08/23 09:42:05;;;;;;;4.15;1.60;;;18.70;99.90;;;;;;5156894;28;20585;-64
2021/08/23 09:44:39;;;;;;;2.80;1.42;;;19.00;99.90;;;;;;5173880;28;20254;-68
2021/08/23 09:47:11;;;;;;;4.13;1.70;;;18.80;99.90;;;;;;5191119;28;20203;-66
2021/08/23 09:49:45;;;;;;;3.88;1.67;;;18.60;99.90;;;;;;5173881;28;20681;-66
2021/08/23 09:52:34;;;;;;;2.75;1.40;;;18.20;99.90;;;;;;5191127;28;20202;-67
2021/08/23 09:55:10;;;;;;;2.08;1.30;;;18.10;99.90;;;;;;5190564;28;20669;-69
2021/08/23 09:57:42;;;;;;;2.83;1.67;;;17.80;99.90;;;;;;5190533;28;20230;-64
2021/08/23 10:00:15;;;;;;;3.35;1.50;;;17.90;99.90;;;;;;5171117;28;20648;-64
2021/08/23 10:02:48;;;;;;;2.13;1.25;;;18.10;99.90;;;;;;5170411;28;20269;-62
2021/08/23 10:05:21;;;;;;;3.88;1.48;;;18.40;99.90;;;;;;5170086;28;20242;-65
2021/08/23 10:07:54;;;;;;;3.85;1.70;;;18.40;99.90;;;;;;5153238;28;20217;-64
2021/08/23 10:10:29;;;;;;;3.38;1.60;;;18.40;99.90;;;;;;5170032;28;20319;-63
2021/08/23 10:13:01;;;;;;;3.90;1.35;;;18.60;99.90;;;;;;5153773;28;20582;-66
2021/08/23 10:15:33;;;;;;;2.50;1.23;;;18.70;99.90;;;;;;5169772;28;20231;-67
2021/08/23 10:18:08;;;;;;;2.63;1.40;;;19.00;99.90;;;;;;5169937;28;20239;-65
2021/08/23 10:20:40;;;;;;;2.85;1.38;;;19.20;99.90;;;;;;5137419;28;20231;-65
2021/08/23 10:23:16;;;;;;;2.63;1.33;;;19.20;99.90;;;;;;5137435;28;20218;-64
2021/08/23 10:25:48;;;;;;;3.75;1.70;;;19.00;99.90;;;;;;5170289;28;20230;-64
2021/08/23 10:28:34;;;;;;;3.28;1.27;;;19.20;99.90;;;;;;5152808;28;20616;-65
2021/08/23 10:31:10;;;;;;;2.17;1.05;;;19.20;99.90;;;;;;5169936;28;20242;-66
2021/08/23 10:33:44;;;;;;;6.95;1.38;;;19.10;99.90;;;;;;5169264;28;20215;-55
2021/08/23 10:36:17;;;;;;;2.45;1.20;;;19.00;99.90;;;;;;5169357;28;20239;-56
2021/08/23 10:39:00;;;;;;;3.63;1.20;;;18.90;99.90;;;;;;5169474;28;20238;-65
2021/08/23 10:41:33;;;;;;;3.47;1.50;;;18.50;99.90;;;;;;5169411;28;20242;-63
2021/08/23 10:44:08;;;;;;;2.53;1.35;;;18.20;99.90;;;;;;5152538;28;20238;-62
2021/08/23 10:46:40;;;;;;;3.40;1.50;;;18.40;99.90;;;;;;5169069;28;20207;-60
2021/08/23 10:49:12;;;;;;;2.90;1.40;;;18.60;99.90;;;;;;5176768;28;20209;-57
2021/08/23 10:52:00;;;;;;;3.38;1.33;;;18.70;99.90;;;;;;5175291;28;20233;-64
2021/08/23 10:54:39;;;;;;;1.90;1.20;;;18.80;99.90;;;;;;5161868;28;20221;-67
2021/08/23 10:57:13;;;;;;;1.50;1.10;;;18.70;99.90;;;;;;5175900;28;20223;-66
2021/08/23 10:59:53;;;;;;;2.75;1.00;;;18.40;99.90;;;;;;5157809;28;20534;-65
2021/08/23 11:02:31;;;;;;;2.75;1.23;;;18.20;99.90;;;;;;5181382;28;20235;-66
2021/08/23 11:05:12;;;;;;;2.95;1.45;;;18.00;99.90;;;;;;5179459;28;20573;-69
2021/08/23 11:07:48;;;;;;;5.03;1.52;;;18.10;99.90;;;;;;5161778;28;20583;-67
2021/08/23 11:10:25;;;;;;;5.35;1.35;;;18.20;99.90;;;;;;5178390;28;20278;-68
2021/08/23 11:13:08;;;;;;;2.33;1.30;;;18.50;99.90;;;;;;5162448;28;20222;-67
2021/08/23 11:15:42;;;;;;;6.15;1.40;;;18.70;99.90;;;;;;5176696;28;20192;-66
2021/08/23 11:18:16;;;;;;;2.58;1.20;;;18.90;99.90;;;;;;5180143;28;20234;-69
2021/08/23 11:20:52;;;;;;;6.28;2.15;;;19.00;99.90;;;;;;5178136;28;20194;-69
2021/08/23 11:23:27;;;;;;;2.95;1.38;;;18.90;99.90;;;;;;5178260;28;20226;-68
2021/08/23 11:26:01;;;;;;;3.03;1.38;;;18.80;99.90;;;;;;5166953;28;20199;-68
2021/08/23 11:28:33;;;;;;;2.95;1.40;;;18.70;99.90;;;;;;5163375;28;20226;-67
2021/08/23 11:31:08;;;;;;;3.28;1.45;;;18.60;99.90;;;;;;5176706;28;20297;-71
2021/08/23 11:33:43;;;;;;;3.22;1.50;;;18.50;99.90;;;;;;5179368;28;20313;-67
2021/08/23 11:36:24;;;;;;;4.25;1.40;;;18.40;99.90;;;;;;5162614;28;20191;-68
2021/08/23 11:38:56;;;;;;;3.60;1.38;;;18.30;99.90;;;;;;5185536;28;20230;-66
2021/08/23 11:41:28;;;;;;;5.15;1.40;;;18.20;99.90;;;;;;5188646;28;20207;-68
2021/08/23 11:44:04;;;;;;;5.10;1.50;;;18.10;99.90;;;;;;5188355;28;20234;-68
2021/08/23 11:46:36;;;;;;;3.42;1.35;;;18.30;99.90;;;;;;5170998;28;20202;-66
2021/08/23 11:49:08;;;;;;;3.20;1.55;;;18.40;99.90;;;;;;5188115;28;20219;-68
2021/08/23 11:51:40;;;;;;;2.20;1.10;;;18.30;99.90;;;;;;5188257;28;20297;-68
2021/08/23 11:54:14;;;;;;;3.70;1.27;;;18.30;99.90;;;;;;5188562;28;20230;-68
2021/08/23 11:56:46;;;;;;;3.03;1.13;;;18.30;99.90;;;;;;5188513;28;20216;-67
2021/08/23 11:59:18;;;;;;;7.28;1.83;;;18.40;99.90;;;;;;5154965;28;20245;-70
2021/08/23 12:01:50;;;;;;;2.13;1.15;;;18.60;99.90;;;;;;5187803;28;20289;-67
2021/08/23 12:04:23;;;;;;;4.30;1.42;;;18.60;99.90;;;;;;5187673;28;20682;-67
2021/08/23 12:06:58;;;;;;;2.58;1.35;;;18.60;99.90;;;;;;5188494;28;20222;-69
2021/08/23 12:09:36;;;;;;;5.10;1.30;;;18.70;99.90;;;;;;5171034;28;20218;-69
2021/08/23 12:12:08;;;;;;;2.58;0.90;;;18.80;99.90;;;;;;5189259;28;20191;-65
2021/08/23 12:14:40;;;;;;;1.98;1.25;;;18.80;99.90;;;;;;5171420;28;20654;-68
2021/08/23 12:17:12;;;;;;;4.63;1.17;;;18.50;99.90;;;;;;5186529;28;20214;-68
2021/08/23 12:19:44;;;;;;;3.88;1.38;;;18.60;99.90;;;;;;5154412;28;20231;-71
2021/08/23 12:22:19;;;;;;;2.85;1.27;;;18.70;99.90;;;;;;5188151;28;20210;-69
2021/08/23 12:25:02;;;;;;;2.88;1.20;;;18.80;99.90;;;;;;5188084;28;20230;-65
2021/08/23 12:27:34;;;;;;;3.55;1.05;;;18.80;99.90;;;;;;5171037;28;20187;-69
2021/08/23 12:30:09;;;;;;;1.75;1.02;;;18.70;99.90;;;;;;5171188;28;20246;-65
2021/08/23 12:32:41;;;;;;;4.15;1.50;;;18.70;99.90;;;;;;5168185;28;20317;-65
2021/08/23 12:35:24;;;;;;;4.07;1.42;;;18.50;99.90;;;;;;5167294;28;20242;-64
2021/08/23 12:38:02;;;;;;;4.53;1.23;;;18.40;99.90;;;;;;5167853;28;20541;-70
2021/08/23 12:40:36;;;;;;;3.30;1.30;;;18.50;99.90;;;;;;5165632;28;20690;-58
2021/08/23 12:43:10;;;;;;;3.63;1.52;;;18.50;99.90;;;;;;5150186;28;20507;-63
2021/08/23 12:45:42;;;;;;;2.13;1.17;;;18.50;99.90;;;;;;5166932;28;20625;-61
2021/08/23 12:48:17;;;;;;;3.55;1.23;;;18.60;99.90;;;;;;5166892;28;20211;-62
2021/08/23 12:50:49;;;;;;;3.25;1.30;;;18.70;99.90;;;;;;5167027;28;20226;-63
2021/08/23 12:53:21;;;;;;;5.80;1.67;;;18.70;99.90;;;;;;5167201;28;20524;-64
2021/08/23 12:55:54;;;;;;;4.22;1.23;;;18.60;99.90;;;;;;5167022;28;20306;-60
2021/08/23 12:58:26;;;;;;;2.80;1.13;;;18.80;99.90;;;;;;5166915;28;20219;-69
2021/08/23 13:01:01;;;;;;;3.42;1.27;;;18.80;99.90;;;;;;5150040;28;20567;-73
2021/08/23 13:03:33;;;;;;;3.92;1.10;;;18.70;99.90;;;;;;5167540;28;20210;-68
2021/08/23 13:06:05;;;;;;;3.38;1.30;;;18.60;99.90;;;;;;5166726;28;20228;-66
2021/08/23 13:08:38;;;;;;;2.53;1.50;;;18.60;99.90;;;;;;5150438;28;20212;-62
2021/08/23 13:11:13;;;;;;;2.80;1.13;;;18.50;99.90;;;;;;5174192;28;20221;-61
2021/08/23 13:13:48;;;;;;;2.58;1.13;;;18.40;99.90;;;;;;5187771;28;20292;-63
2021/08/23 13:16:22;;;;;;;3.10;1.40;;;18.40;99.90;;;;;;5188888;28;20241;-65
2021/08/23 13:18:54;;;;;;;4.13;1.25;;;18.40;99.90;;;;;;5188614;28;20632;-63
2021/08/23 13:21:28;;;;;;;2.72;1.27;;;18.40;99.90;;;;;;5154481;28;20234;-65